sensor_id;sensor_type;location;lat;lon;timestamp;pressure;altitude;pressure_sealevel;temperature;humidity
8318;BME280;4196;48.926;8.964;2023-07-29T00:01:54;98601.56;;;15.95;100.00
8318;BME280;4196;48.926;8.964;2023-07-29T00:04:40;98543.59;;;15.56;100.00
8318;BME280;4196;48.926;8.964;2023-07-29T00:07:26;98598.03;;;15.96;100.00
8318;BME280;4196;48.926;8.964;2023-07-29T00:10:13;98601.41;;;16.00;100.00
8318;BME280;4196;48.926;8.964;2023-07-29T00:12:59;98583.97;;;16.00;100.00
8318;BME280;4196;48.926;8.964;2023-07-29T00:15:46;98589.78;;;16.10;100.00
8318;BME280;4196;48.926;8.964;2023-07-29T00:18:33;98549.72;;;15.83;100.00
8318;BME280;4196;48.926;8.964;2023-07-29T00:21:20;98555.59;;;15.89;100.00
8318;BME280;4196;48.926;8.964;2023-07-29T00:24:06;98558.19;;;15.91;100.00
8318;BME280;4196;48.926;8.964;2023-07-29T00:26:53;98590.47;;;16.15;100.00
8318;BME280;4196;48.926;8.964;2023-07-29T00:29:39;98566.50;;;16.02;100.00
8318;BME280;4196;48.926;8.964;2023-07-29T00:32:29;98600.38;;;16.32;100.00
8318;BME280;4196;48.926;8.964;2023-07-29T00:35:17;98600.72;;;16.21;100.00
8318;BME280;4196;48.926;8.964;2023-07-29T00:38:03;98590.22;;;16.23;100.00
8318;BME280;4196;48.926;8.964;2023-07-29T00:40:50;98577.13;;;16.24;100.00
8318;BME280;4196;48.926;8.964;2023-07-29T00:43:36;98560.38;;;16.03;100.00
8318;BME280;4196;48.926;8.964;2023-07-29T00:46:24;98581.97;;;16.08;100.00
8318;BME280;4196;48.926;8.964;2023-07-29T00:49:10;98566.38;;;16.05;100.00
8318;BME280;4196;48.926;8.964;2023-07-29T00:51:57;98574.00;;;16.13;100.00
8318;BME280;4196;48.926;8.964;2023-07-29T00:54:44;98579.00;;;16.19;100.00
8318;BME280;4196;48.926;8.964;2023-07-29T00:57:31;98536.53;;;15.87;100.00
8318;BME280;4196;48.926;8.964;2023-07-29T01:00:18;98576.56;;;16.14;100.00
8318;BME280;4196;48.926;8.964;2023-07-29T01:03:05;98543.38;;;15.91;100.00
8318;BME280;4196;48.926;8.964;2023-07-29T01:09:07;98555.56;;;16.17;100.00
8318;BME280;4196;48.926;8.964;2023-07-29T01:12:18;98557.56;;;16.09;100.00
8318;BME280;4196;48.926;8.964;2023-07-29T01:15:14;98550.63;;;16.08;100.00
8318;BME280;4196;48.926;8.964;2023-07-29T01:18:31;98549.75;;;16.09;100.00
8318;BME280;4196;48.926;8.964;2023-07-29T01:21:21;98528.38;;;15.97;100.00
8318;BME280;4196;48.926;8.964;2023-07-29T01:24:08;98549.59;;;16.14;100.00
8318;BME280;4196;48.926;8.964;2023-07-29T01:26:54;98532.59;;;16.01;100.00
8318;BME280;4196;48.926;8.964;2023-07-29T01:29:41;98510.31;;;15.90;100.00
8318;BME280;4196;48.926;8.964;2023-07-29T01:32:43;98548.63;;;16.16;100.00
8318;BME280;4196;48.926;8.964;2023-07-29T01:35:35;98555.56;;;16.17;100.00
8318;BME280;4196;48.926;8.964;2023-07-29T01:38:29;98550.25;;;16.21;100.00
8318;BME280;4196;48.926;8.964;2023-07-29T01:41:21;98519.19;;;16.11;100.00
8318;BME280;4196;48.926;8.964;2023-07-29T01:44:09;98516.19;;;15.97;100.00
8318;BME280;4196;48.926;8.964;2023-07-29T01:46:56;98531.56;;;16.06;100.00
8318;BME280;4196;48.926;8.964;2023-07-29T01:49:43;98541.09;;;16.07;100.00
8318;BME280;4196;48.926;8.964;2023-07-29T01:52:29;98503.44;;;15.88;100.00
8318;BME280;4196;48.926;8.964;2023-07-29T01:55:16;98516.84;;;16.04;100.00
8318;BME280;4196;48.926;8.964;2023-07-29T01:58:02;98530.59;;;16.34;100.00
8318;BME280;4196;48.926;8.964;2023-07-29T02:00:54;98525.22;;;16.13;100.00
8318;BME280;4196;48.926;8.964;2023-07-29T02:03:40;98505.97;;;15.91;100.00
8318;BME280;4196;48.926;8.964;2023-07-29T02:06:26;98522.13;;;16.02;100.00
8318;BME280;4196;48.926;8.964;2023-07-29T02:09:13;98498.16;;;15.89;100.00
8318;BME280;4196;48.926;8.964;2023-07-29T02:12:00;98500.00;;;15.86;100.00
8318;BME280;4196;48.926;8.964;2023-07-29T02:14:56;98495.72;;;15.85;100.00
8318;BME280;4196;48.926;8.964;2023-07-29T02:17:42;98521.50;;;15.94;100.00
8318;BME280;4196;48.926;8.964;2023-07-29T02:20:29;98521.22;;;16.03;100.00
8318;BME280;4196;48.926;8.964;2023-07-29T02:23:15;98530.09;;;15.98;100.00
8318;BME280;4196;48.926;8.964;2023-07-29T02:26:03;98521.28;;;16.02;100.00
8318;BME280;4196;48.926;8.964;2023-07-29T02:28:49;98477.88;;;15.71;100.00
8318;BME280;4196;48.926;8.964;2023-07-29T02:31:36;98494.00;;;15.84;100.00
8318;BME280;4196;48.926;8.964;2023-07-29T02:34:23;98520.56;;;15.97;100.00
8318;BME280;4196;48.926;8.964;2023-07-29T02:37:10;98527.63;;;15.93;100.00
8318;BME280;4196;48.926;8.964;2023-07-29T02:39:57;98521.75;;;15.86;100.00
8318;BME280;4196;48.926;8.964;2023-07-29T02:42:43;98471.34;;;15.58;100.00
8318;BME280;4196;48.926;8.964;2023-07-29T02:45:29;98517.44;;;15.85;100.00
8318;BME280;4196;48.926;8.964;2023-07-29T02:48:16;98512.22;;;15.85;100.00
8318;BME280;4196;48.926;8.964;2023-07-29T02:51:02;98486.72;;;15.67;100.00
8318;BME280;4196;48.926;8.964;2023-07-29T02:53:49;98506.25;;;15.82;100.00
8318;BME280;4196;48.926;8.964;2023-07-29T02:56:35;98497.41;;;15.86;100.00
8318;BME280;4196;48.926;8.964;2023-07-29T02:59:22;98459.81;;;15.63;100.00
8318;BME280;4196;48.926;8.964;2023-07-29T03:02:09;98488.38;;;15.96;100.00
8318;BME280;4196;48.926;8.964;2023-07-29T03:04:55;98484.84;;;15.97;100.00
8318;BME280;4196;48.926;8.964;2023-07-29T03:07:42;98489.19;;;15.98;100.00
8318;BME280;4196;48.926;8.964;2023-07-29T03:10:29;98439.56;;;15.72;100.00
8318;BME280;4196;48.926;8.964;2023-07-29T03:13:15;98485.97;;;16.15;100.00
8318;BME280;4196;48.926;8.964;2023-07-29T03:16:08;98486.53;;;16.25;100.00
8318;BME280;4196;48.926;8.964;2023-07-29T03:18:57;98471.50;;;16.06;100.00
8318;BME280;4196;48.926;8.964;2023-07-29T03:21:45;98479.63;;;16.22;100.00
8318;BME280;4196;48.926;8.964;2023-07-29T03:24:32;98487.00;;;16.36;100.00
8318;BME280;4196;48.926;8.964;2023-07-29T03:27:19;98471.81;;;16.22;100.00
8318;BME280;4196;48.926;8.964;2023-07-29T03:30:06;98443.03;;;15.99;100.00
8318;BME280;4196;48.926;8.964;2023-07-29T03:32:53;98484.59;;;16.30;100.00
8318;BME280;4196;48.926;8.964;2023-07-29T03:35:39;98480.22;;;16.30;100.00
8318;BME280;4196;48.926;8.964;2023-07-29T03:38:26;98476.44;;;16.39;100.00
8318;BME280;4196;48.926;8.964;2023-07-29T03:41:13;98472.25;;;16.35;100.00
8318;BME280;4196;48.926;8.964;2023-07-29T03:44:00;98465.25;;;16.35;100.00
8318;BME280;4196;48.926;8.964;2023-07-29T03:46:46;98462.56;;;16.37;100.00
8318;BME280;4196;48.926;8.964;2023-07-29T03:49:33;98463.59;;;16.33;100.00
8318;BME280;4196;48.926;8.964;2023-07-29T03:52:19;98476.44;;;16.39;100.00
8318;BME280;4196;48.926;8.964;2023-07-29T03:55:06;98464.25;;;16.38;100.00
8318;BME280;4196;48.926;8.964;2023-07-29T03:57:53;98462.56;;;16.37;100.00
8318;BME280;4196;48.926;8.964;2023-07-29T04:00:39;98461.78;;;16.35;100.00
8318;BME280;4196;48.926;8.964;2023-07-29T04:03:26;98404.63;;;16.01;100.00
8318;BME280;4196;48.926;8.964;2023-07-29T04:06:13;98452.31;;;16.56;100.00
8318;BME280;4196;48.926;8.964;2023-07-29T04:09:00;98448.91;;;16.54;100.00
8318;BME280;4196;48.926;8.964;2023-07-29T04:11:47;98401.38;;;16.19;100.00
8318;BME280;4196;48.926;8.964;2023-07-29T04:14:36;98446.81;;;16.38;100.00
8318;BME280;4196;48.926;8.964;2023-07-29T04:17:22;98461.28;;;16.49;100.00
8318;BME280;4196;48.926;8.964;2023-07-29T04:20:10;98438.13;;;16.38;100.00
8318;BME280;4196;48.926;8.964;2023-07-29T04:22:56;98460.09;;;16.57;100.00
8318;BME280;4196;48.926;8.964;2023-07-29T04:25:43;98462.13;;;16.49;100.00
8318;BME280;4196;48.926;8.964;2023-07-29T04:28:29;98488.41;;;16.70;100.00
8318;BME280;4196;48.926;8.964;2023-07-29T04:31:16;98455.19;;;16.48;100.00
8318;BME280;4196;48.926;8.964;2023-07-29T04:34:02;98489.09;;;16.75;100.00
8318;BME280;4196;48.926;8.964;2023-07-29T04:36:48;98500.66;;;16.93;100.00
8318;BME280;4196;48.926;8.964;2023-07-29T04:39:35;98523.91;;;17.24;100.00
8318;BME280;4196;48.926;8.964;2023-07-29T04:42:22;98467.16;;;16.79;100.00
8318;BME280;4196;48.926;8.964;2023-07-29T04:45:09;98497.94;;;16.96;100.00
8318;BME280;4196;48.926;8.964;2023-07-29T04:47:55;98489.22;;;16.95;100.00
8318;BME280;4196;48.926;8.964;2023-07-29T04:50:42;98444.34;;;16.84;100.00
8318;BME280;4196;48.926;8.964;2023-07-29T04:53:28;98438.41;;;16.79;100.00
8318;BME280;4196;48.926;8.964;2023-07-29T04:56:15;98426.50;;;16.94;100.00
8318;BME280;4196;48.926;8.964;2023-07-29T04:59:18;98475.94;;;17.01;100.00
8318;BME280;4196;48.926;8.964;2023-07-29T05:02:04;98460.56;;;16.92;100.00
8318;BME280;4196;48.926;8.964;2023-07-29T05:04:51;98433.31;;;16.76;100.00
8318;BME280;4196;48.926;8.964;2023-07-29T05:07:37;98463.34;;;17.11;100.00
8318;BME280;4196;48.926;8.964;2023-07-29T05:10:24;98413.63;;;16.89;100.00
8318;BME280;4196;48.926;8.964;2023-07-29T05:13:11;98433.22;;;17.01;100.00
8318;BME280;4196;48.926;8.964;2023-07-29T05:15:57;98444.56;;;17.23;100.00
8318;BME280;4196;48.926;8.964;2023-07-29T05:18:45;98456.31;;;17.35;100.00
8318;BME280;4196;48.926;8.964;2023-07-29T05:21:31;98464.03;;;17.38;100.00
8318;BME280;4196;48.926;8.964;2023-07-29T05:24:18;98470.34;;;17.54;100.00
8318;BME280;4196;48.926;8.964;2023-07-29T05:27:05;98463.34;;;17.77;100.00
8318;BME280;4196;48.926;8.964;2023-07-29T05:29:51;98469.53;;;17.96;100.00
8318;BME280;4196;48.926;8.964;2023-07-29T05:32:37;98465.59;;;17.86;100.00
8318;BME280;4196;48.926;8.964;2023-07-29T05:35:25;98481.03;;;17.92;100.00
8318;BME280;4196;48.926;8.964;2023-07-29T05:38:12;98487.00;;;17.96;100.00
8318;BME280;4196;48.926;8.964;2023-07-29T05:40:58;98495.38;;;18.04;100.00
8318;BME280;4196;48.926;8.964;2023-07-29T05:43:45;98493.56;;;18.06;100.00
8318;BME280;4196;48.926;8.964;2023-07-29T05:46:31;98489.25;;;18.05;100.00
8318;BME280;4196;48.926;8.964;2023-07-29T05:49:18;98493.13;;;18.17;100.00
8318;BME280;4196;48.926;8.964;2023-07-29T05:52:05;98444.97;;;17.99;100.00
8318;BME280;4196;48.926;8.964;2023-07-29T05:54:52;98486.16;;;18.36;100.00
8318;BME280;4196;48.926;8.964;2023-07-29T05:57:38;98483.94;;;18.47;100.00
8318;BME280;4196;48.926;8.964;2023-07-29T06:00:29;98481.34;;;19.05;100.00
8318;BME280;4196;48.926;8.964;2023-07-29T06:03:15;98478.47;;;19.29;100.00
8318;BME280;4196;48.926;8.964;2023-07-29T06:06:02;98470.81;;;19.24;100.00
8318;BME280;4196;48.926;8.964;2023-07-29T06:08:49;98477.06;;;19.22;100.00
8318;BME280;4196;48.926;8.964;2023-07-29T06:11:36;98466.31;;;19.09;100.00
8318;BME280;4196;48.926;8.964;2023-07-29T06:14:23;98481.47;;;19.02;100.00
8318;BME280;4196;48.926;8.964;2023-07-29T06:17:09;98485.66;;;19.06;100.00
8318;BME280;4196;48.926;8.964;2023-07-29T06:19:57;98483.13;;;19.05;100.00
8318;BME280;4196;48.926;8.964;2023-07-29T06:22:44;98488.94;;;19.12;100.00
8318;BME280;4196;48.926;8.964;2023-07-29T06:25:30;98482.69;;;18.95;100.00
8318;BME280;4196;48.926;8.964;2023-07-29T06:28:16;98483.75;;;18.91;100.00
8318;BME280;4196;48.926;8.964;2023-07-29T06:31:03;98509.41;;;18.85;100.00
8318;BME280;4196;48.926;8.964;2023-07-29T06:33:49;98496.00;;;18.70;100.00
8318;BME280;4196;48.926;8.964;2023-07-29T06:36:36;98499.25;;;18.77;100.00
8318;BME280;4196;48.926;8.964;2023-07-29T06:39:22;98503.97;;;18.69;100.00
8318;BME280;4196;48.926;8.964;2023-07-29T06:42:08;98502.94;;;18.73;100.00
8318;BME280;4196;48.926;8.964;2023-07-29T06:44:55;98515.19;;;18.72;100.00
8318;BME280;4196;48.926;8.964;2023-07-29T06:47:41;98484.63;;;18.51;100.00
8318;BME280;4196;48.926;8.964;2023-07-29T06:50:28;98508.28;;;18.70;100.00
8318;BME280;4196;48.926;8.964;2023-07-29T06:53:14;98522.09;;;18.75;100.00
8318;BME280;4196;48.926;8.964;2023-07-29T06:56:01;98513.38;;;18.74;100.00
8318;BME280;4196;48.926;8.964;2023-07-29T06:58:48;98502.25;;;18.68;100.00
8318;BME280;4196;48.926;8.964;2023-07-29T07:01:35;98487.84;;;18.37;100.00
8318;BME280;4196;48.926;8.964;2023-07-29T07:04:21;98497.97;;;18.46;100.00
8318;BME280;4196;48.926;8.964;2023-07-29T07:07:08;98527.19;;;18.57;100.00
8318;BME280;4196;48.926;8.964;2023-07-29T07:09:54;98523.59;;;18.40;100.00
8318;BME280;4196;48.926;8.964;2023-07-29T07:12:40;98536.34;;;18.47;100.00
8318;BME280;4196;48.926;8.964;2023-07-29T07:15:27;98542.53;;;18.46;100.00
8318;BME280;4196;48.926;8.964;2023-07-29T07:18:14;98500.88;;;18.20;100.00
8318;BME280;4196;48.926;8.964;2023-07-29T07:21:00;98513.44;;;18.32;100.00
8318;BME280;4196;48.926;8.964;2023-07-29T07:23:49;98553.28;;;18.61;100.00
8318;BME280;4196;48.926;8.964;2023-07-29T07:26:35;98537.41;;;18.64;100.00
8318;BME280;4196;48.926;8.964;2023-07-29T07:29:22;98531.66;;;18.76;100.00
8318;BME280;4196;48.926;8.964;2023-07-29T07:32:08;98510.81;;;18.73;100.00
8318;BME280;4196;48.926;8.964;2023-07-29T07:34:55;98484.97;;;18.64;100.00
8318;BME280;4196;48.926;8.964;2023-07-29T07:37:42;98503.31;;;18.84;100.00
8318;BME280;4196;48.926;8.964;2023-07-29T07:40:28;98514.13;;;19.16;100.00
8318;BME280;4196;48.926;8.964;2023-07-29T07:43:15;98513.16;;;19.54;100.00
8318;BME280;4196;48.926;8.964;2023-07-29T07:46:03;98502.09;;;19.84;100.00
8318;BME280;4196;48.926;8.964;2023-07-29T07:48:50;98530.44;;;20.31;100.00
8318;BME280;4196;48.926;8.964;2023-07-29T07:51:36;98494.19;;;20.55;100.00
8318;BME280;4196;48.926;8.964;2023-07-29T07:54:23;98511.34;;;21.27;100.00
8318;BME280;4196;48.926;8.964;2023-07-29T07:57:09;98497.59;;;21.69;100.00
8318;BME280;4196;48.926;8.964;2023-07-29T07:59:56;98474.03;;;21.82;100.00
8318;BME280;4196;48.926;8.964;2023-07-29T08:02:43;98465.81;;;22.03;100.00
8318;BME280;4196;48.926;8.964;2023-07-29T08:05:30;98494.38;;;22.55;100.00
8318;BME280;4196;48.926;8.964;2023-07-29T08:08:17;98486.19;;;22.59;100.00
8318;BME280;4196;48.926;8.964;2023-07-29T08:11:03;98520.13;;;23.08;100.00
8318;BME280;4196;48.926;8.964;2023-07-29T08:13:50;98502.91;;;23.03;100.00
8318;BME280;4196;48.926;8.964;2023-07-29T08:16:36;98538.44;;;23.11;100.00
8318;BME280;4196;48.926;8.964;2023-07-29T08:19:23;98532.88;;;22.87;100.00
8318;BME280;4196;48.926;8.964;2023-07-29T08:22:09;98505.91;;;22.24;100.00
8318;BME280;4196;48.926;8.964;2023-07-29T08:24:56;98516.03;;;21.85;100.00
8318;BME280;4196;48.926;8.964;2023-07-29T08:27:42;98497.03;;;21.49;100.00
8318;BME280;4196;48.926;8.964;2023-07-29T08:30:28;98529.28;;;21.68;100.00
8318;BME280;4196;48.926;8.964;2023-07-29T08:33:15;98529.13;;;21.71;100.00
8318;BME280;4196;48.926;8.964;2023-07-29T08:36:02;98512.84;;;21.49;100.00
8318;BME280;4196;48.926;8.964;2023-07-29T08:38:49;98548.34;;;21.73;100.00
8318;BME280;4196;48.926;8.964;2023-07-29T08:42:00;98551.63;;;21.92;100.00
8318;BME280;4196;48.926;8.964;2023-07-29T08:44:51;98529.59;;;21.93;100.00
8318;BME280;4196;48.926;8.964;2023-07-29T08:47:40;98556.97;;;22.23;100.00
8318;BME280;4196;48.926;8.964;2023-07-29T08:50:26;98515.59;;;22.23;100.00
8318;BME280;4196;48.926;8.964;2023-07-29T08:53:13;98507.00;;;22.64;100.00
8318;BME280;4196;48.926;8.964;2023-07-29T08:56:01;98547.78;;;23.03;100.00
8318;BME280;4196;48.926;8.964;2023-07-29T08:58:48;98530.84;;;23.34;100.00
8318;BME280;4196;48.926;8.964;2023-07-29T09:01:35;98547.34;;;23.52;100.00
8318;BME280;4196;48.926;8.964;2023-07-29T09:04:21;98541.97;;;23.53;100.00
8318;BME280;4196;48.926;8.964;2023-07-29T09:07:08;98549.97;;;23.66;100.00
8318;BME280;4196;48.926;8.964;2023-07-29T09:09:54;98520.72;;;23.69;96.51
8318;BME280;4196;48.926;8.964;2023-07-29T09:12:40;98539.53;;;23.92;100.00
8318;BME280;4196;48.926;8.964;2023-07-29T09:15:29;98542.78;;;24.22;96.64
8318;BME280;4196;48.926;8.964;2023-07-29T09:18:18;98537.84;;;24.30;92.33
8318;BME280;4196;48.926;8.964;2023-07-29T09:21:05;98521.09;;;24.30;92.90
8318;BME280;4196;48.926;8.964;2023-07-29T09:23:51;98524.69;;;24.29;90.39
8318;BME280;4196;48.926;8.964;2023-07-29T09:26:38;98531.03;;;24.26;91.23
8318;BME280;4196;48.926;8.964;2023-07-29T09:29:28;98538.63;;;24.18;90.25
8318;BME280;4196;48.926;8.964;2023-07-29T09:32:19;98522.59;;;23.67;90.68
8318;BME280;4196;48.926;8.964;2023-07-29T09:35:10;98542.56;;;23.30;93.99
8318;BME280;4196;48.926;8.964;2023-07-29T09:37:57;98555.59;;;22.76;95.94
8318;BME280;4196;48.926;8.964;2023-07-29T09:40:43;98558.34;;;22.14;100.00
8318;BME280;4196;48.926;8.964;2023-07-29T09:43:34;98572.13;;;21.71;100.00
8318;BME280;4196;48.926;8.964;2023-07-29T09:46:23;98572.75;;;21.12;100.00
8318;BME280;4196;48.926;8.964;2023-07-29T09:49:10;98587.97;;;20.89;100.00
8318;BME280;4196;48.926;8.964;2023-07-29T09:51:57;98587.59;;;20.45;100.00
8318;BME280;4196;48.926;8.964;2023-07-29T09:54:44;98594.28;;;20.16;100.00
8318;BME280;4196;48.926;8.964;2023-07-29T09:57:31;98595.81;;;20.02;100.00
8318;BME280;4196;48.926;8.964;2023-07-29T10:00:18;98597.69;;;20.00;100.00
8318;BME280;4196;48.926;8.964;2023-07-29T10:03:05;98582.06;;;19.97;100.00
8318;BME280;4196;48.926;8.964;2023-07-29T10:05:52;98581.72;;;20.22;100.00
8318;BME280;4196;48.926;8.964;2023-07-29T10:08:39;98566.94;;;20.20;100.00
8318;BME280;4196;48.926;8.964;2023-07-29T10:11:27;98581.25;;;20.49;100.00
8318;BME280;4196;48.926;8.964;2023-07-29T10:14:13;98571.06;;;20.60;100.00
8318;BME280;4196;48.926;8.964;2023-07-29T10:17:00;98541.09;;;20.45;100.00
8318;BME280;4196;48.926;8.964;2023-07-29T10:19:48;98581.53;;;20.95;100.00
8318;BME280;4196;48.926;8.964;2023-07-29T10:22:39;98591.22;;;20.94;100.00
8318;BME280;4196;48.926;8.964;2023-07-29T10:25:39;98549.75;;;20.82;100.00
8318;BME280;4196;48.926;8.964;2023-07-29T10:28:29;98556.75;;;20.66;100.00
8318;BME280;4196;48.926;8.964;2023-07-29T10:31:17;98550.16;;;20.74;100.00
8318;BME280;4196;48.926;8.964;2023-07-29T10:34:04;98570.81;;;20.82;100.00
8318;BME280;4196;48.926;8.964;2023-07-29T10:36:51;98588.75;;;21.25;100.00
8318;BME280;4196;48.926;8.964;2023-07-29T10:39:40;98533.03;;;21.32;100.00
8318;BME280;4196;48.926;8.964;2023-07-29T10:42:27;98568.59;;;21.73;100.00
8318;BME280;4196;48.926;8.964;2023-07-29T10:45:18;98540.09;;;21.79;100.00
8318;BME280;4196;48.926;8.964;2023-07-29T10:48:13;98573.28;;;22.13;100.00
8318;BME280;4196;48.926;8.964;2023-07-29T10:54:14;98578.38;;;22.32;100.00
8318;BME280;4196;48.926;8.964;2023-07-29T10:57:00;98571.19;;;22.50;100.00
8318;BME280;4196;48.926;8.964;2023-07-29T10:59:55;98546.34;;;22.38;100.00
8318;BME280;4196;48.926;8.964;2023-07-29T11:02:42;98546.84;;;22.45;100.00
8318;BME280;4196;48.926;8.964;2023-07-29T11:05:45;98565.91;;;22.50;100.00
8318;BME280;4196;48.926;8.964;2023-07-29T11:08:33;98563.97;;;22.38;100.00
8318;BME280;4196;48.926;8.964;2023-07-29T11:11:20;98569.31;;;22.22;100.00
8318;BME280;4196;48.926;8.964;2023-07-29T11:14:07;98544.34;;;22.12;100.00
8318;BME280;4196;48.926;8.964;2023-07-29T11:16:54;98566.31;;;22.28;100.00
8318;BME280;4196;48.926;8.964;2023-07-29T11:19:40;98528.72;;;22.09;100.00
8318;BME280;4196;48.926;8.964;2023-07-29T11:22:27;98570.53;;;22.31;100.00
8318;BME280;4196;48.926;8.964;2023-07-29T11:25:16;98505.44;;;22.01;100.00
8318;BME280;4196;48.926;8.964;2023-07-29T11:28:03;98508.53;;;22.24;100.00
8318;BME280;4196;48.926;8.964;2023-07-29T11:30:54;98554.13;;;22.56;99.86
8318;BME280;4196;48.926;8.964;2023-07-29T11:33:41;98510.88;;;22.58;99.77
8318;BME280;4196;48.926;8.964;2023-07-29T11:36:27;98533.59;;;22.75;100.00
8318;BME280;4196;48.926;8.964;2023-07-29T11:39:14;98547.19;;;22.83;99.33
8318;BME280;4196;48.926;8.964;2023-07-29T11:42:00;98554.72;;;22.89;100.00
8318;BME280;4196;48.926;8.964;2023-07-29T11:44:47;98543.91;;;23.23;96.45
8318;BME280;4196;48.926;8.964;2023-07-29T11:47:34;98499.88;;;23.09;93.21
8318;BME280;4196;48.926;8.964;2023-07-29T11:50:23;98509.38;;;23.11;91.29
8318;BME280;4196;48.926;8.964;2023-07-29T11:53:10;98540.69;;;23.32;94.08
8318;BME280;4196;48.926;8.964;2023-07-29T11:55:57;98523.81;;;23.34;92.57
8318;BME280;4196;48.926;8.964;2023-07-29T11:58:44;98511.81;;;23.29;92.10
8318;BME280;4196;48.926;8.964;2023-07-29T12:01:30;98533.22;;;23.53;93.25
8318;BME280;4196;48.926;8.964;2023-07-29T12:04:17;98543.38;;;23.73;88.10
8318;BME280;4196;48.926;8.964;2023-07-29T12:07:04;98516.84;;;23.60;88.30
8318;BME280;4196;48.926;8.964;2023-07-29T12:09:50;98530.91;;;23.61;90.60
8318;BME280;4196;48.926;8.964;2023-07-29T12:12:47;98521.50;;;23.57;89.85
8318;BME280;4196;48.926;8.964;2023-07-29T12:15:34;98503.56;;;23.48;89.68
8318;BME280;4196;48.926;8.964;2023-07-29T12:18:29;98495.44;;;23.51;88.76
8318;BME280;4196;48.926;8.964;2023-07-29T12:21:18;98537.22;;;23.73;88.54
8318;BME280;4196;48.926;8.964;2023-07-29T12:24:05;98525.84;;;23.85;82.15
8318;BME280;4196;48.926;8.964;2023-07-29T12:26:51;98496.13;;;23.81;80.44
8318;BME280;4196;48.926;8.964;2023-07-29T12:29:41;98541.16;;;24.07;82.64
8318;BME280;4196;48.926;8.964;2023-07-29T12:32:29;98491.91;;;23.92;81.24
8318;BME280;4196;48.926;8.964;2023-07-29T12:35:15;98534.09;;;24.20;79.87
8318;BME280;4196;48.926;8.964;2023-07-29T12:38:01;98523.41;;;24.09;80.00
8318;BME280;4196;48.926;8.964;2023-07-29T12:40:48;98526.78;;;24.11;80.45
8318;BME280;4196;48.926;8.964;2023-07-29T12:43:34;98503.03;;;23.97;76.98
8318;BME280;4196;48.926;8.964;2023-07-29T12:46:21;98522.09;;;24.02;73.78
8318;BME280;4196;48.926;8.964;2023-07-29T12:49:08;98503.44;;;23.91;72.47
8318;BME280;4196;48.926;8.964;2023-07-29T12:51:56;98518.91;;;23.97;75.88
8318;BME280;4196;48.926;8.964;2023-07-29T12:54:42;98507.44;;;23.83;76.37
8318;BME280;4196;48.926;8.964;2023-07-29T12:57:30;98494.53;;;23.79;73.99
8318;BME280;4196;48.926;8.964;2023-07-29T13:00:17;98524.91;;;24.26;74.14
8318;BME280;4196;48.926;8.964;2023-07-29T13:03:03;98496.56;;;24.41;74.83
8318;BME280;4196;48.926;8.964;2023-07-29T13:05:52;98512.56;;;24.77;71.97
8318;BME280;4196;48.926;8.964;2023-07-29T13:08:38;98479.03;;;24.65;70.71
8318;BME280;4196;48.926;8.964;2023-07-29T13:11:25;98518.09;;;24.87;70.25
8318;BME280;4196;48.926;8.964;2023-07-29T13:14:12;98493.94;;;24.66;71.63
8318;BME280;4196;48.926;8.964;2023-07-29T13:16:59;98513.34;;;24.79;70.22
8318;BME280;4196;48.926;8.964;2023-07-29T13:19:45;98512.91;;;24.73;70.04
8318;BME280;4196;48.926;8.964;2023-07-29T13:22:31;98509.19;;;24.75;67.66
8318;BME280;4196;48.926;8.964;2023-07-29T13:25:18;98496.69;;;24.77;64.95
8318;BME280;4196;48.926;8.964;2023-07-29T13:28:04;98507.81;;;24.82;66.31
8318;BME280;4196;48.926;8.964;2023-07-29T13:30:51;98508.25;;;24.76;69.24
8318;BME280;4196;48.926;8.964;2023-07-29T13:33:37;98483.22;;;24.80;68.51
8318;BME280;4196;48.926;8.964;2023-07-29T13:36:24;98463.31;;;24.88;70.47
8318;BME280;4196;48.926;8.964;2023-07-29T13:39:10;98506.09;;;25.20;66.52
8318;BME280;4196;48.926;8.964;2023-07-29T13:41:56;98503.78;;;25.15;67.03
8318;BME280;4196;48.926;8.964;2023-07-29T13:44:43;98489.47;;;25.05;65.49
8318;BME280;4196;48.926;8.964;2023-07-29T13:47:30;98477.81;;;25.08;66.23
8318;BME280;4196;48.926;8.964;2023-07-29T13:50:19;98460.72;;;25.24;64.08
8318;BME280;4196;48.926;8.964;2023-07-29T13:53:06;98488.66;;;25.65;64.41
8318;BME280;4196;48.926;8.964;2023-07-29T13:55:52;98503.75;;;26.24;59.57
8318;BME280;4196;48.926;8.964;2023-07-29T13:58:40;98512.25;;;26.40;62.40
8318;BME280;4196;48.926;8.964;2023-07-29T14:01:26;98505.91;;;26.54;61.70
8318;BME280;4196;48.926;8.964;2023-07-29T14:04:12;98512.53;;;26.48;62.35
8318;BME280;4196;48.926;8.964;2023-07-29T14:06:59;98524.25;;;26.57;60.06
8318;BME280;4196;48.926;8.964;2023-07-29T14:09:45;98502.56;;;26.63;59.13
8318;BME280;4196;48.926;8.964;2023-07-29T14:12:32;98503.16;;;26.78;57.54
8318;BME280;4196;48.926;8.964;2023-07-29T14:15:18;98505.66;;;26.57;57.21
8318;BME280;4196;48.926;8.964;2023-07-29T14:18:05;98531.38;;;26.57;55.73
8318;BME280;4196;48.926;8.964;2023-07-29T14:20:52;98529.09;;;26.52;58.20
8318;BME280;4196;48.926;8.964;2023-07-29T14:23:39;98500.66;;;26.41;56.89
8318;BME280;4196;48.926;8.964;2023-07-29T14:26:25;98496.38;;;26.52;57.11
8318;BME280;4196;48.926;8.964;2023-07-29T14:29:11;98492.56;;;26.43;55.92
8318;BME280;4196;48.926;8.964;2023-07-29T14:31:58;98500.75;;;26.29;56.86
8318;BME280;4196;48.926;8.964;2023-07-29T14:34:45;98478.72;;;26.04;58.54
8318;BME280;4196;48.926;8.964;2023-07-29T14:37:31;98491.06;;;26.16;56.96
8318;BME280;4196;48.926;8.964;2023-07-29T14:40:18;98509.69;;;26.27;60.01
8318;BME280;4196;48.926;8.964;2023-07-29T14:43:04;98495.47;;;26.40;55.77
8318;BME280;4196;48.926;8.964;2023-07-29T14:45:51;98494.81;;;26.25;54.83
8318;BME280;4196;48.926;8.964;2023-07-29T14:48:37;98479.69;;;26.03;55.03
8318;BME280;4196;48.926;8.964;2023-07-29T14:51:24;98468.09;;;25.93;56.89
8318;BME280;4196;48.926;8.964;2023-07-29T14:54:10;98474.34;;;25.92;59.24
8318;BME280;4196;48.926;8.964;2023-07-29T14:56:57;98464.97;;;26.10;55.69
8318;BME280;4196;48.926;8.964;2023-07-29T14:59:43;98496.66;;;26.36;55.62
8318;BME280;4196;48.926;8.964;2023-07-29T15:02:30;98470.09;;;26.24;58.05
8318;BME280;4196;48.926;8.964;2023-07-29T15:05:16;98471.97;;;26.46;56.95
8318;BME280;4196;48.926;8.964;2023-07-29T15:08:02;98467.03;;;26.53;55.01
8318;BME280;4196;48.926;8.964;2023-07-29T15:10:49;98498.44;;;26.59;54.08